sensor_id;sensor_type;location;lat;lon;timestamp;pressure;altitude;pressure_sealevel;temperature;humidity
46682;BME280;34101;53.430;-2.224;2023-01-28T00:02:18;55439.99;;;-148.94;73.74
46682;BME280;34101;53.430;-2.224;2023-01-28T00:04:45;55367.19;;;-148.94;75.63
46682;BME280;34101;53.430;-2.224;2023-01-28T00:07:12;55302.35;;;-148.94;75.09
46682;BME280;34101;53.430;-2.224;2023-01-28T00:09:41;55188.03;;;-148.94;74.59
46682;BME280;34101;53.430;-2.224;2023-01-28T00:12:08;55100.63;;;-148.94;74.37
46682;BME280;34101;53.430;-2.224;2023-01-28T00:14:35;55295.68;;;-148.94;73.61
46682;BME280;34101;53.430;-2.224;2023-01-28T00:17:03;55276.84;;;-148.94;74.36
46682;BME280;34101;53.430;-2.224;2023-01-28T00:19:30;55231.22;;;-148.94;73.99
46682;BME280;34101;53.430;-2.224;2023-01-28T00:21:57;55243.52;;;-148.94;73.55
46682;BME280;34101;53.430;-2.224;2023-01-28T00:24:24;55441.02;;;-148.94;73.60
46682;BME280;34101;53.430;-2.224;2023-01-28T00:26:51;55584.18;;;-148.94;75.60
46682;BME280;34101;53.430;-2.224;2023-01-28T00:29:19;55368.60;;;-148.94;75.57
46682;BME280;34101;53.430;-2.224;2023-01-28T00:31:47;55298.76;;;-148.94;74.49
46682;BME280;34101;53.430;-2.224;2023-01-28T00:34:14;55418.84;;;-148.94;74.52
46682;BME280;34101;53.430;-2.224;2023-01-28T00:36:41;55389.49;;;-148.94;75.60
46682;BME280;34101;53.430;-2.224;2023-01-28T00:39:10;55526.89;;;-148.94;75.58
46682;BME280;34101;53.430;-2.224;2023-01-28T00:41:40;55375.01;;;-148.94;75.82
46682;BME280;34101;53.430;-2.224;2023-01-28T00:44:09;55318.75;;;-148.94;74.69
46682;BME280;34101;53.430;-2.224;2023-01-28T00:46:36;55257.62;;;-148.94;75.44
46682;BME280;34101;53.430;-2.224;2023-01-28T00:49:03;55175.34;;;-148.94;75.54
46682;BME280;34101;53.430;-2.224;2023-01-28T00:51:31;55021.81;;;-148.94;74.72
46682;BME280;34101;53.430;-2.224;2023-01-28T00:53:58;55208.92;;;-148.94;74.33
46682;BME280;34101;53.430;-2.224;2023-01-28T00:56:25;55295.42;;;-148.94;74.79
46682;BME280;34101;53.430;-2.224;2023-01-28T00:58:53;55609.04;;;-148.94;74.63
46682;BME280;34101;53.430;-2.224;2023-01-28T01:01:22;55606.09;;;-148.94;75.72
46682;BME280;34101;53.430;-2.224;2023-01-28T01:03:49;56185.20;;;-148.94;76.17
46682;BME280;34101;53.430;-2.224;2023-01-28T01:06:16;56896.97;;;-148.94;78.14
46682;BME280;34101;53.430;-2.224;2023-01-28T01:08:43;56685.30;;;-148.94;79.27
46682;BME280;34101;53.430;-2.224;2023-01-28T01:11:11;56771.45;;;-148.94;79.62
46682;BME280;34101;53.430;-2.224;2023-01-28T01:13:38;56401.98;;;-148.94;79.03
46682;BME280;34101;53.430;-2.224;2023-01-28T01:16:07;56155.21;;;-148.94;79.43
46682;BME280;34101;53.430;-2.224;2023-01-28T01:18:37;55989.98;;;-148.94;78.26
46682;BME280;34101;53.430;-2.224;2023-01-28T01:21:07;55903.97;;;-148.94;76.91
46682;BME280;34101;53.430;-2.224;2023-01-28T01:23:35;55819.63;;;-148.94;77.24
46682;BME280;34101;53.430;-2.224;2023-01-28T01:26:03;55717.22;;;-148.94;76.64
46682;BME280;34101;53.430;-2.224;2023-01-28T01:28:30;56048.17;;;-148.94;77.77
46682;BME280;34101;53.430;-2.224;2023-01-28T01:31:00;56359.93;;;-148.94;77.87
46682;BME280;34101;53.430;-2.224;2023-01-28T01:33:28;56132.65;;;-148.94;78.10
46682;BME280;34101;53.430;-2.224;2023-01-28T01:35:56;56080.99;;;-148.94;78.07
46682;BME280;34101;53.430;-2.224;2023-01-28T01:38:24;55947.81;;;-148.94;78.38
46682;BME280;34101;53.430;-2.224;2023-01-28T01:40:51;56295.58;;;-148.94;76.76
46682;BME280;34101;53.430;-2.224;2023-01-28T01:43:20;56251.86;;;-148.94;78.29
46682;BME280;34101;53.430;-2.224;2023-01-28T01:45:50;56073.94;;;-148.94;78.59
46682;BME280;34101;53.430;-2.224;2023-01-28T01:48:22;55865.90;;;-148.94;78.44
46682;BME280;34101;53.430;-2.224;2023-01-28T01:50:53;55794.64;;;-148.94;76.78
46682;BME280;34101;53.430;-2.224;2023-01-28T01:53:24;55932.17;;;-148.94;77.52
46682;BME280;34101;53.430;-2.224;2023-01-28T01:55:55;56061.63;;;-148.94;78.49
46682;BME280;34101;53.430;-2.224;2023-01-28T01:58:26;56606.07;;;-148.94;78.64
46682;BME280;34101;53.430;-2.224;2023-01-28T02:00:56;56421.21;;;-148.94;80.48
46682;BME280;34101;53.430;-2.224;2023-01-28T02:03:30;56299.04;;;-148.94;79.54
46682;BME280;34101;53.430;-2.224;2023-01-28T02:06:03;56039.46;;;-148.94;79.48
46682;BME280;34101;53.430;-2.224;2023-01-28T02:08:31;55761.18;;;-148.94;78.77
46682;BME280;34101;53.430;-2.224;2023-01-28T02:11:00;55518.68;;;-148.94;77.98
46682;BME280;34101;53.430;-2.224;2023-01-28T02:13:32;55488.18;;;-148.94;76.68
46682;BME280;34101;53.430;-2.224;2023-01-28T02:16:02;55475.24;;;-148.94;77.10
46682;BME280;34101;53.430;-2.224;2023-01-28T02:18:31;55716.06;;;-148.94;77.73
46682;BME280;34101;53.430;-2.224;2023-01-28T02:21:25;55819.50;;;-148.94;76.74
46682;BME280;34101;53.430;-2.224;2023-01-28T02:24:16;55807.71;;;-148.94;78.66
46682;BME280;34101;53.430;-2.224;2023-01-28T02:26:57;55720.94;;;-148.94;77.33
46682;BME280;34101;53.430;-2.224;2023-01-28T02:29:31;55626.86;;;-148.94;78.00
46682;BME280;34101;53.430;-2.224;2023-01-28T02:32:05;55481.52;;;-148.94;77.92
46682;BME280;34101;53.430;-2.224;2023-01-28T02:34:40;55666.72;;;-148.94;75.91
46682;BME280;34101;53.430;-2.224;2023-01-28T02:37:11;55901.66;;;-148.94;77.07
46682;BME280;34101;53.430;-2.224;2023-01-28T02:39:42;56484.92;;;-148.94;77.70
46682;BME280;34101;53.430;-2.224;2023-01-28T02:42:15;56320.44;;;-148.94;78.07
46682;BME280;34101;53.430;-2.224;2023-01-28T02:44:44;56208.28;;;-148.94;77.31
46682;BME280;34101;53.430;-2.224;2023-01-28T02:47:13;56098.93;;;-148.94;77.77
46682;BME280;34101;53.430;-2.224;2023-01-28T02:49:44;56132.01;;;-148.94;76.81
46682;BME280;34101;53.430;-2.224;2023-01-28T02:52:21;56069.45;;;-148.94;77.92
46682;BME280;34101;53.430;-2.224;2023-01-28T02:54:57;55937.04;;;-148.94;78.21
46682;BME280;34101;53.430;-2.224;2023-01-28T02:57:35;55742.98;;;-148.94;78.62
46682;BME280;34101;53.430;-2.224;2023-01-28T03:00:09;55644.03;;;-148.94;76.67
46682;BME280;34101;53.430;-2.224;2023-01-28T03:02:44;55756.95;;;-148.94;77.59
46682;BME280;34101;53.430;-2.224;2023-01-28T03:05:18;55884.36;;;-148.94;75.91
46682;BME280;34101;53.430;-2.224;2023-01-28T03:07:48;56154.95;;;-148.94;77.71
46682;BME280;34101;53.430;-2.224;2023-01-28T03:10:19;56467.74;;;-148.94;78.49
46682;BME280;34101;53.430;-2.224;2023-01-28T03:12:50;56610.17;;;-148.94;78.12
46682;BME280;34101;53.430;-2.224;2023-01-28T03:15:20;56969.79;;;-148.94;79.32
46682;BME280;34101;53.430;-2.224;2023-01-28T03:17:53;56568.25;;;-148.94;78.63
46682;BME280;34101;53.430;-2.224;2023-01-28T03:20:25;56742.73;;;-148.94;79.91
46682;BME280;34101;53.430;-2.224;2023-01-28T03:22:55;56255.96;;;-148.94;79.24
46682;BME280;34101;53.430;-2.224;2023-01-28T03:25:25;56002.93;;;-148.94;77.92
46682;BME280;34101;53.430;-2.224;2023-01-28T03:27:57;55751.31;;;-148.94;76.60
46682;BME280;34101;53.430;-2.224;2023-01-28T03:30:31;55582.77;;;-148.94;76.71
46682;BME280;34101;53.430;-2.224;2023-01-28T03:33:03;55480.88;;;-148.94;76.47
46682;BME280;34101;53.430;-2.224;2023-01-28T03:35:34;55372.32;;;-148.94;76.51
46682;BME280;34101;53.430;-2.224;2023-01-28T03:38:03;55322.85;;;-148.94;76.11
46682;BME280;34101;53.430;-2.224;2023-01-28T03:40:31;55234.17;;;-148.94;75.85
46682;BME280;34101;53.430;-2.224;2023-01-28T03:42:58;55007.08;;;-148.94;76.15
46682;BME280;34101;53.430;-2.224;2023-01-28T03:45:26;55568.41;;;-148.94;73.96
46682;BME280;34101;53.430;-2.224;2023-01-28T03:47:54;55562.26;;;-148.94;76.58
46682;BME280;34101;53.430;-2.224;2023-01-28T03:50:21;55320.93;;;-148.94;75.93
46682;BME280;34101;53.430;-2.224;2023-01-28T03:52:48;55300.04;;;-148.94;75.71
46682;BME280;34101;53.430;-2.224;2023-01-28T03:55:16;55180.08;;;-148.94;75.40
46682;BME280;34101;53.430;-2.224;2023-01-28T03:57:43;55124.72;;;-148.94;75.76
46682;BME280;34101;53.430;-2.224;2023-01-28T04:00:11;55028.99;;;-148.94;75.10
46682;BME280;34101;53.430;-2.224;2023-01-28T04:02:39;54836.26;;;-148.94;75.47
46682;BME280;34101;53.430;-2.224;2023-01-28T04:05:08;54913.53;;;-148.94;73.77
46682;BME280;34101;53.430;-2.224;2023-01-28T04:07:35;54837.03;;;-148.94;75.11
46682;BME280;34101;53.430;-2.224;2023-01-28T04:10:03;54891.49;;;-148.94;73.78
46682;BME280;34101;53.430;-2.224;2023-01-28T04:12:30;55063.85;;;-148.94;74.76
46682;BME280;34101;53.430;-2.224;2023-01-28T04:14:57;55167.40;;;-148.94;74.65
46682;BME280;34101;53.430;-2.224;2023-01-28T04:17:24;55146.63;;;-148.94;74.53
46682;BME280;34101;53.430;-2.224;2023-01-28T04:19:51;55070.64;;;-148.94;74.21
46682;BME280;34101;53.430;-2.224;2023-01-28T04:22:18;54991.44;;;-148.94;74.44
46682;BME280;34101;53.430;-2.224;2023-01-28T04:24:45;55092.94;;;-148.94;73.82
46682;BME280;34101;53.430;-2.224;2023-01-28T04:27:13;54957.10;;;-148.94;75.30
46682;BME280;34101;53.430;-2.224;2023-01-28T04:29:40;54996.57;;;-148.94;74.32
46682;BME280;34101;53.430;-2.224;2023-01-28T04:32:07;55291.32;;;-148.94;75.11
46682;BME280;34101;53.430;-2.224;2023-01-28T04:34:35;55407.82;;;-148.94;76.29
46682;BME280;34101;53.430;-2.224;2023-01-28T04:37:02;55498.18;;;-148.94;76.17
46682;BME280;34101;53.430;-2.224;2023-01-28T04:39:29;55324.00;;;-148.94;76.19
46682;BME280;34101;53.430;-2.224;2023-01-28T04:41:57;55281.97;;;-148.94;75.27
46682;BME280;34101;53.430;-2.224;2023-01-28T04:44:24;55465.24;;;-148.94;75.81
46682;BME280;34101;53.430;-2.224;2023-01-28T04:46:51;55565.21;;;-148.94;76.57
46682;BME280;34101;53.430;-2.224;2023-01-28T04:49:18;55619.17;;;-148.94;77.49
46682;BME280;34101;53.430;-2.224;2023-01-28T04:51:46;55789.64;;;-148.94;79.33
46682;BME280;34101;53.430;-2.224;2023-01-28T04:54:13;55706.71;;;-148.94;80.51
46682;BME280;34101;53.430;-2.224;2023-01-28T04:56:41;55841.93;;;-148.94;81.00
46682;BME280;34101;53.430;-2.224;2023-01-28T04:59:09;55684.28;;;-148.94;82.31
46682;BME280;34101;53.430;-2.224;2023-01-28T05:01:36;55539.19;;;-148.94;83.06
46682;BME280;34101;53.430;-2.224;2023-01-28T05:04:03;55416.28;;;-148.94;83.57
46682;BME280;34101;53.430;-2.224;2023-01-28T05:06:31;55290.17;;;-148.94;83.81
46682;BME280;34101;53.430;-2.224;2023-01-28T05:08:58;55470.49;;;-148.94;82.86
46682;BME280;34101;53.430;-2.224;2023-01-28T05:11:25;55270.18;;;-148.94;84.39
46682;BME280;34101;53.430;-2.224;2023-01-28T05:13:53;55090.38;;;-148.94;83.12
46682;BME280;34101;53.430;-2.224;2023-01-28T05:16:21;54936.60;;;-148.94;84.16
46682;BME280;34101;53.430;-2.224;2023-01-28T05:18:48;54744.38;;;-148.94;83.51
46682;BME280;34101;53.430;-2.224;2023-01-28T05:21:16;54539.10;;;-148.94;82.24
46682;BME280;34101;53.430;-2.224;2023-01-28T05:23:43;54694.53;;;-148.94;80.20
46682;BME280;34101;53.430;-2.224;2023-01-28T05:26:11;54719.14;;;-148.94;82.48
46682;BME280;34101;53.430;-2.224;2023-01-28T05:28:38;54606.50;;;-148.94;81.42
46682;BME280;34101;53.430;-2.224;2023-01-28T05:31:06;54608.17;;;-148.94;79.36
46682;BME280;34101;53.430;-2.224;2023-01-28T05:33:33;54945.69;;;-148.94;80.13
46682;BME280;34101;53.430;-2.224;2023-01-28T05:36:00;54938.90;;;-148.94;81.03
46682;BME280;34101;53.430;-2.224;2023-01-28T05:38:27;54896.49;;;-148.94;80.80
46682;BME280;34101;53.430;-2.224;2023-01-28T05:40:54;54889.44;;;-148.94;80.51
46682;BME280;34101;53.430;-2.224;2023-01-28T05:43:22;54866.63;;;-148.94;80.85
46682;BME280;34101;53.430;-2.224;2023-01-28T05:45:49;54860.48;;;-148.94;80.46
46682;BME280;34101;53.430;-2.224;2023-01-28T05:48:16;54782.31;;;-148.94;80.39
46682;BME280;34101;53.430;-2.224;2023-01-28T05:50:47;54790.51;;;-148.94;79.04
46682;BME280;34101;53.430;-2.224;2023-01-28T05:53:14;54822.03;;;-148.94;80.30
46682;BME280;34101;53.430;-2.224;2023-01-28T05:55:41;54693.89;;;-148.94;80.56
46682;BME280;34101;53.430;-2.224;2023-01-28T05:58:09;54623.93;;;-148.94;80.10
46682;BME280;34101;53.430;-2.224;2023-01-28T06:00:36;54589.33;;;-148.94;80.56
46682;BME280;34101;53.430;-2.224;2023-01-28T06:03:03;54715.42;;;-148.94;80.50
46682;BME280;34101;53.430;-2.224;2023-01-28T06:05:30;55796.17;;;-148.94;81.98
46682;BME280;34101;53.430;-2.224;2023-01-28T06:07:58;55684.41;;;-148.94;83.52
46682;BME280;34101;53.430;-2.224;2023-01-28T06:10:25;55420.25;;;-148.94;84.44
46682;BME280;34101;53.430;-2.224;2023-01-28T06:12:52;55226.48;;;-148.94;83.23
46682;BME280;34101;53.430;-2.224;2023-01-28T06:15:19;55297.73;;;-148.94;83.15
46682;BME280;34101;53.430;-2.224;2023-01-28T06:17:46;55276.33;;;-148.94;84.14
46682;BME280;34101;53.430;-2.224;2023-01-28T06:20:14;55168.93;;;-148.94;83.20
46682;BME280;34101;53.430;-2.224;2023-01-28T06:22:41;55143.56;;;-148.94;82.04
46682;BME280;34101;53.430;-2.224;2023-01-28T06:25:09;55106.01;;;-148.94;82.34
46682;BME280;34101;53.430;-2.224;2023-01-28T06:27:36;55051.29;;;-148.94;83.41
46682;BME280;34101;53.430;-2.224;2023-01-28T06:30:04;54893.54;;;-148.94;83.18
46682;BME280;34101;53.430;-2.224;2023-01-28T06:32:31;55049.24;;;-148.94;82.79
46682;BME280;34101;53.430;-2.224;2023-01-28T06:34:58;54880.85;;;-148.94;84.53
46682;BME280;34101;53.430;-2.224;2023-01-28T06:37:26;54765.01;;;-148.94;83.24
46682;BME280;34101;53.430;-2.224;2023-01-28T06:39:53;54615.60;;;-148.94;83.06
46682;BME280;34101;53.430;-2.224;2023-01-28T06:42:20;54470.17;;;-148.94;82.12
46682;BME280;34101;53.430;-2.224;2023-01-28T06:44:48;54454.15;;;-148.94;83.09
46682;BME280;34101;53.430;-2.224;2023-01-28T06:47:15;54429.42;;;-148.94;82.61
46682;BME280;34101;53.430;-2.224;2023-01-28T06:49:43;54478.50;;;-148.94;83.58
46682;BME280;34101;53.430;-2.224;2023-01-28T06:52:10;55092.17;;;-148.94;82.77
46682;BME280;34101;53.430;-2.224;2023-01-28T06:54:37;54965.17;;;-148.94;86.53
46682;BME280;34101;53.430;-2.224;2023-01-28T06:57:04;54918.01;;;-148.94;86.47
46682;BME280;34101;53.430;-2.224;2023-01-28T06:59:31;54809.35;;;-148.94;86.49
46682;BME280;34101;53.430;-2.224;2023-01-28T07:01:58;54756.81;;;-148.94;85.59
46682;BME280;34101;53.430;-2.224;2023-01-28T07:04:25;54689.92;;;-148.94;85.99
46682;BME280;34101;53.430;-2.224;2023-01-28T07:06:53;54622.01;;;-148.94;85.84
46682;BME280;34101;53.430;-2.224;2023-01-28T07:09:20;54614.83;;;-148.94;86.14
46682;BME280;34101;53.430;-2.224;2023-01-28T07:11:48;54706.45;;;-148.94;85.44
46682;BME280;34101;53.430;-2.224;2023-01-28T07:14:15;54780.77;;;-148.94;86.41
46682;BME280;34101;53.430;-2.224;2023-01-28T07:16:42;54720.42;;;-148.94;87.07
46682;BME280;34101;53.430;-2.224;2023-01-28T07:19:10;54530.52;;;-148.94;87.67
46682;BME280;34101;53.430;-2.224;2023-01-28T07:21:36;54548.20;;;-148.94;85.63
46682;BME280;34101;53.430;-2.224;2023-01-28T07:24:04;54518.99;;;-148.94;86.68
46682;BME280;34101;53.430;-2.224;2023-01-28T07:26:32;54563.70;;;-148.94;86.10
46682;BME280;34101;53.430;-2.224;2023-01-28T07:28:59;54621.49;;;-148.94;85.95
46682;BME280;34101;53.430;-2.224;2023-01-28T07:31:26;54518.60;;;-148.94;86.96
46682;BME280;34101;53.430;-2.224;2023-01-28T07:33:53;54512.83;;;-148.94;86.04
46682;BME280;34101;53.430;-2.224;2023-01-28T07:36:21;54547.05;;;-148.94;85.88
46682;BME280;34101;53.430;-2.224;2023-01-28T07:38:47;54383.17;;;-148.94;86.53
46682;BME280;34101;53.430;-2.224;2023-01-28T07:41:14;54334.09;;;-148.94;86.01
46682;BME280;34101;53.430;-2.224;2023-01-28T07:43:42;54275.28;;;-148.94;84.94
46682;BME280;34101;53.430;-2.224;2023-01-28T07:46:09;54682.87;;;-148.94;84.90
46682;BME280;34101;53.430;-2.224;2023-01-28T07:48:36;54692.23;;;-148.94;88.40
46682;BME280;34101;53.430;-2.224;2023-01-28T07:51:04;54717.09;;;-148.94;88.20
46682;BME280;34101;53.430;-2.224;2023-01-28T07:53:31;54726.31;;;-148.94;88.58
46682;BME280;34101;53.430;-2.224;2023-01-28T07:55:59;54666.60;;;-148.94;87.72
46682;BME280;34101;53.430;-2.224;2023-01-28T07:58:26;54467.73;;;-148.94;87.93
46682;BME280;34101;53.430;-2.224;2023-01-28T08:00:56;54409.94;;;-148.94;88.02
46682;BME280;34101;53.430;-2.224;2023-01-28T08:03:23;54271.44;;;-148.94;88.22
46682;BME280;34101;53.430;-2.224;2023-01-28T08:05:53;54228.77;;;-148.94;87.78
46682;BME280;34101;53.430;-2.224;2023-01-28T08:08:21;54413.53;;;-148.94;86.74
46682;BME280;34101;53.430;-2.224;2023-01-28T08:10:49;54686.97;;;-148.94;87.72
46682;BME280;34101;53.430;-2.224;2023-01-28T08:13:16;54705.17;;;-148.94;88.53
46682;BME280;34101;53.430;-2.224;2023-01-28T08:15:44;54701.58;;;-148.94;87.85
46682;BME280;34101;53.430;-2.224;2023-01-28T08:18:14;54885.59;;;-148.94;90.18
46682;BME280;34101;53.430;-2.224;2023-01-28T08:20:41;55055.13;;;-148.94;89.36
46682;BME280;34101;53.430;-2.224;2023-01-28T08:23:12;55251.47;;;-148.94;92.29
46682;BME280;34101;53.430;-2.224;2023-01-28T08:25:39;54977.47;;;-148.94;93.57
46682;BME280;34101;53.430;-2.224;2023-01-28T08:28:07;54851.63;;;-148.94;95.33
46682;BME280;34101;53.430;-2.224;2023-01-28T08:30:35;54791.79;;;-148.94;94.59
46682;BME280;34101;53.430;-2.224;2023-01-28T08:33:03;54671.34;;;-148.94;93.77
46682;BME280;34101;53.430;-2.224;2023-01-28T08:35:32;54970.94;;;-148.94;93.47
46682;BME280;34101;53.430;-2.224;2023-01-28T08:38:00;54928.91;;;-148.94;94.69
46682;BME280;34101;53.430;-2.224;2023-01-28T08:40:28;54710.29;;;-148.94;95.32
46682;BME280;34101;53.430;-2.224;2023-01-28T08:42:56;54808.32;;;-148.94;93.01
46682;BME280;34101;53.430;-2.224;2023-01-28T08:45:25;55094.73;;;-148.94;97.45
46682;BME280;34101;53.430;-2.224;2023-01-28T08:47:54;55164.70;;;-148.94;97.86
46682;BME280;34101;53.430;-2.224;2023-01-28T08:50:23;54984.14;;;-148.94;100.00
46682;BME280;34101;53.430;-2.224;2023-01-28T08:52:55;54676.85;;;-148.94;100.00
46682;BME280;34101;53.430;-2.224;2023-01-28T08:55:23;54373.81;;;-148.94;99.63
46682;BME280;34101;53.430;-2.224;2023-01-28T08:57:52;54213.40;;;-148.94;98.85
46682;BME280;34101;53.430;-2.224;2023-01-28T09:00:20;54048.25;;;-148.94;99.64
46682;BME280;34101;53.430;-2.224;2023-01-28T09:02:50;53767.55;;;-148.94;99.29
46682;BME280;34101;53.430;-2.224;2023-01-28T09:05:18;53456.00;;;-148.94;97.89
46682;BME280;34101;53.430;-2.224;2023-01-28T09:07:48;53408.60;;;-148.94;95.67
46682;BME280;34101;53.430;-2.224;2023-01-28T09:10:16;53132.05;;;-148.94;96.39
46682;BME280;34101;53.430;-2.224;2023-01-28T09:12:43;52951.58;;;-148.94;95.00
46682;BME280;34101;53.430;-2.224;2023-01-28T09:15:11;52833.10;;;-148.94;92.80
46682;BME280;34101;53.430;-2.224;2023-01-28T09:17:38;52580.79;;;-148.94;92.75
46682;BME280;34101;53.430;-2.224;2023-01-28T09:20:07;52545.96;;;-148.94;91.07
46682;BME280;34101;53.430;-2.224;2023-01-28T09:22:35;52585.66;;;-148.94;92.82
46682;BME280;34101;53.430;-2.224;2023-01-28T09:25:03;52449.27;;;-148.94;93.38
46682;BME280;34101;53.430;-2.224;2023-01-28T09:27:31;52250.26;;;-148.94;91.94
46682;BME280;34101;53.430;-2.224;2023-01-28T09:29:58;52344.77;;;-148.94;90.90
46682;BME280;34101;53.430;-2.224;2023-01-28T09:32:26;52358.60;;;-148.94;93.87
46682;BME280;34101;53.430;-2.224;2023-01-28T09:34:53;52152.67;;;-148.94;93.36
46682;BME280;34101;53.430;-2.224;2023-01-28T09:37:20;51945.74;;;-148.94;93.26
46682;BME280;34101;53.430;-2.224;2023-01-28T09:39:48;51719.86;;;-148.94;91.29
46682;BME280;34101;53.430;-2.224;2023-01-28T09:42:31;51337.03;;;-148.94;90.20
46682;BME280;34101;53.430;-2.224;2023-01-28T09:45:10;50986.24;;;-148.94;87.45
46682;BME280;34101;53.430;-2.224;2023-01-28T09:47:41;50918.65;;;-148.94;87.84
46682;BME280;34101;53.430;-2.224;2023-01-28T09:50:14;50838.77;;;-148.94;85.01
46682;BME280;34101;53.430;-2.224;2023-01-28T09:52:44;50791.79;;;-148.94;84.98
46682;BME280;34101;53.430;-2.224;2023-01-28T09:55:18;50663.52;;;-148.94;86.17
46682;BME280;34101;53.430;-2.224;2023-01-28T09:57:51;50515.03;;;-148.94;84.73
46682;BME280;34101;53.430;-2.224;2023-01-28T10:00:22;50388.31;;;-148.94;85.53
46682;BME280;34101;53.430;-2.224;2023-01-28T10:03:01;50211.67;;;-148.94;85.28
46682;BME280;34101;53.430;-2.224;2023-01-28T10:05:41;50026.47;;;-148.94;84.03
46682;BME280;34101;53.430;-2.224;2023-01-28T10:08:21;49903.99;;;-148.94;82.53
46682;BME280;34101;53.430;-2.224;2023-01-28T10:11:00;50037.09;;;-148.94;84.45
46682;BME280;34101;53.430;-2.224;2023-01-28T10:13:39;49944.69;;;-148.94;84.03
46682;BME280;34101;53.430;-2.224;2023-01-28T10:16:18;49876.73;;;-148.94;82.12
46682;BME280;34101;53.430;-2.224;2023-01-28T10:18:52;49838.20;;;-148.94;82.00
46682;BME280;34101;53.430;-2.224;2023-01-28T10:21:26;49868.92;;;-148.94;82.40
46682;BME280;34101;53.430;-2.224;2023-01-28T10:24:00;49760.01;;;-148.94;83.50
46682;BME280;34101;53.430;-2.224;2023-01-28T10:26:33;49758.09;;;-148.94;82.55
46682;BME280;34101;53.430;-2.224;2023-01-28T10:29:09;49618.85;;;-148.94;81.94
46682;BME280;34101;53.430;-2.224;2023-01-28T10:31:42;49336.29;;;-148.94;81.49
46682;BME280;34101;53.430;-2.224;2023-01-28T10:34:10;49090.60;;;-148.94;81.32
46682;BME280;34101;53.430;-2.224;2023-01-28T10:36:37;48935.52;;;-148.94;80.26
46682;BME280;34101;53.430;-2.224;2023-01-28T10:39:04;49020.10;;;-148.94;79.48
46682;BME280;34101;53.430;-2.224;2023-01-28T10:41:32;48956.37;;;-148.94;79.35
46682;BME280;34101;53.430;-2.224;2023-01-28T10:43:59;49059.63;;;-148.94;80.33
46682;BME280;34101;53.430;-2.224;2023-01-28T10:46:31;48966.23;;;-148.94;79.99
46682;BME280;34101;53.430;-2.224;2023-01-28T10:49:05;48860.03;;;-148.94;78.86
46682;BME280;34101;53.430;-2.224;2023-01-28T10:51:36;49000.39;;;-148.94;77.38
46682;BME280;34101;53.430;-2.224;2023-01-28T10:54:18;49039.03;;;-148.94;78.18
46682;BME280;34101;53.430;-2.224;2023-01-28T10:56:48;48995.27;;;-148.94;79.04
46682;BME280;34101;53.430;-2.224;2023-01-28T10:59:20;49191.56;;;-148.94;77.16
46682;BME280;34101;53.430;-2.224;2023-01-28T11:01:50;49485.76;;;-148.94;78.52
46682;BME280;34101;53.430;-2.224;2023-01-28T11:04:22;49390.16;;;-148.94;78.70
46682;BME280;34101;53.430;-2.224;2023-01-28T11:06:53;49620.51;;;-148.94;79.11
46682;BME280;34101;53.430;-2.224;2023-01-28T11:09:23;49744.26;;;-148.94;80.65
46682;BME280;34101;53.430;-2.224;2023-01-28T11:11:50;49759.11;;;-148.94;79.73
46682;BME280;34101;53.430;-2.224;2023-01-28T11:14:21;49869.05;;;-148.94;80.64
46682;BME280;34101;53.430;-2.224;2023-01-28T11:16:49;49747.59;;;-148.94;81.02
46682;BME280;34101;53.430;-2.224;2023-01-28T11:19:18;49660.82;;;-148.94;80.63
46682;BME280;34101;53.430;-2.224;2023-01-28T11:21:51;49876.09;;;-148.94;80.87
46682;BME280;34101;53.430;-2.224;2023-01-28T11:24:22;49932.78;;;-148.94;82.73
46682;BME280;34101;53.430;-2.224;2023-01-28T11:26:53;49808.51;;;-148.94;81.78
46682;BME280;34101;53.430;-2.224;2023-01-28T11:29:25;49644.31;;;-148.94;80.62
46682;BME280;34101;53.430;-2.224;2023-01-28T11:31:53;49993.45;;;-148.94;80.15
46682;BME280;34101;53.430;-2.224;2023-01-28T11:34:25;49762.05;;;-148.94;82.25
46682;BME280;34101;53.430;-2.224;2023-01-28T11:36:54;49389.91;;;-148.94;81.37
46682;BME280;34101;53.430;-2.224;2023-01-28T11:39:22;49468.61;;;-148.94;79.58
46682;BME280;34101;53.430;-2.224;2023-01-28T11:41:50;49826.56;;;-148.94;81.74
46682;BME280;34101;53.430;-2.224;2023-01-28T11:44:21;49638.30;;;-148.94;82.44
46682;BME280;34101;53.430;-2.224;2023-01-28T11:47:00;49532.21;;;-148.94;82.96
46682;BME280;34101;53.430;-2.224;2023-01-28T11:49:38;49315.17;;;-148.94;81.83
46682;BME280;34101;53.430;-2.224;2023-01-28T11:52:16;49570.34;;;-148.94;81.63
46682;BME280;34101;53.430;-2.224;2023-01-28T11:54:56;49429.32;;;-148.94;81.05
46682;BME280;34101;53.430;-2.224;2023-01-28T11:57:34;49358.68;;;-148.94;83.17
46682;BME280;34101;53.430;-2.224;2023-01-28T12:00:22;49141.27;;;-148.94;80.59
46682;BME280;34101;53.430;-2.224;2023-01-28T12:02:57;48990.54;;;-148.94;80.35
46682;BME280;34101;53.430;-2.224;2023-01-28T12:05:42;49450.05;;;-148.94;80.18
46682;BME280;34101;53.430;-2.224;2023-01-28T12:08:19;49734.92;;;-148.94;83.31
46682;BME280;34101;53.430;-2.224;2023-01-28T12:10:58;49527.09;;;-148.94;83.66
46682;BME280;34101;53.430;-2.224;2023-01-28T12:13:42;49227.39;;;-148.94;83.05
46682;BME280;34101;53.430;-2.224;2023-01-28T12:16:21;48894.45;;;-148.94;83.42
46682;BME280;34101;53.430;-2.224;2023-01-28T12:19:21;48462.12;;;-148.94;81.65
46682;BME280;34101;53.430;-2.224;2023-01-28T12:22:01;49115.81;;;-148.94;80.76
46682;BME280;34101;53.430;-2.224;2023-01-28T12:24:43;49386.45;;;-148.94;85.37
46682;BME280;34101;53.430;-2.224;2023-01-28T12:27:28;48864.38;;;-148.94;83.86
46682;BME280;34101;53.430;-2.224;2023-01-28T12:30:05;48917.73;;;-148.94;82.53
46682;BME280;34101;53.430;-2.224;2023-01-28T12:32:45;48993.48;;;-148.94;83.66
46682;BME280;34101;53.430;-2.224;2023-01-28T12:35:27;48920.93;;;-148.94;84.91
46682;BME280;34101;53.430;-2.224;2023-01-28T12:37:59;48932.96;;;-148.94;85.80
46682;BME280;34101;53.430;-2.224;2023-01-28T12:41:06;48721.33;;;-148.94;84.51
46682;BME280;34101;53.430;-2.224;2023-01-28T12:43:43;48784.02;;;-148.94;84.88
46682;BME280;34101;53.430;-2.224;2023-01-28T12:46:21;48896.88;;;-148.94;84.54